sensor_id;sensor_type;location;lat;lon;timestamp;pressure;altitude;pressure_sealevel;temperature;humidity
8366;BME280;4220;42.502;24.188;2023-03-16T00:02:17;94155.53;;;7.11;100.00
8366;BME280;4220;42.502;24.188;2023-03-16T00:04:44;94144.34;;;6.98;100.00
8366;BME280;4220;42.502;24.188;2023-03-16T00:07:13;94155.41;;;6.88;100.00
8366;BME280;4220;42.502;24.188;2023-03-16T00:09:40;94169.34;;;6.77;100.00
8366;BME280;4220;42.502;24.188;2023-03-16T00:12:11;94164.50;;;6.56;100.00
8366;BME280;4220;42.502;24.188;2023-03-16T00:14:40;94167.34;;;6.36;100.00
8366;BME280;4220;42.502;24.188;2023-03-16T00:17:08;94161.84;;;6.20;100.00
8366;BME280;4220;42.502;24.188;2023-03-16T00:19:43;94168.41;;;6.11;100.00
8366;BME280;4220;42.502;24.188;2023-03-16T00:22:11;94168.53;;;5.98;100.00
8366;BME280;4220;42.502;24.188;2023-03-16T00:24:39;94174.66;;;5.91;100.00
8366;BME280;4220;42.502;24.188;2023-03-16T00:27:09;94175.09;;;5.88;100.00
8366;BME280;4220;42.502;24.188;2023-03-16T00:29:40;94188.94;;;5.71;100.00
8366;BME280;4220;42.502;24.188;2023-03-16T00:32:12;94168.44;;;5.55;100.00
8366;BME280;4220;42.502;24.188;2023-03-16T00:34:40;94184.50;;;5.40;100.00
8366;BME280;4220;42.502;24.188;2023-03-16T00:37:07;94174.00;;;5.34;100.00
8366;BME280;4220;42.502;24.188;2023-03-16T00:39:33;94177.84;;;5.38;100.00
8366;BME280;4220;42.502;24.188;2023-03-16T00:42:00;94136.75;;;5.12;100.00
8366;BME280;4220;42.502;24.188;2023-03-16T00:44:30;94178.44;;;5.40;100.00
8366;BME280;4220;42.502;24.188;2023-03-16T00:46:57;94185.72;;;5.38;100.00
8366;BME280;4220;42.502;24.188;2023-03-16T00:49:23;94174.66;;;5.29;100.00
8366;BME280;4220;42.502;24.188;2023-03-16T00:51:50;94182.16;;;5.25;100.00
8366;BME280;4220;42.502;24.188;2023-03-16T00:54:17;94180.38;;;5.19;100.00
8366;BME280;4220;42.502;24.188;2023-03-16T00:56:44;94130.00;;;4.85;100.00
8366;BME280;4220;42.502;24.188;2023-03-16T00:59:11;94162.84;;;5.07;100.00
8366;BME280;4220;42.502;24.188;2023-03-16T01:01:39;94171.94;;;5.11;100.00
8366;BME280;4220;42.502;24.188;2023-03-16T01:04:06;94184.28;;;5.04;100.00
8366;BME280;4220;42.502;24.188;2023-03-16T01:06:33;94169.94;;;5.00;100.00
8366;BME280;4220;42.502;24.188;2023-03-16T01:09:00;94175.03;;;4.95;100.00
8366;BME280;4220;42.502;24.188;2023-03-16T01:11:30;94170.81;;;4.94;100.00
8366;BME280;4220;42.502;24.188;2023-03-16T01:13:59;94185.75;;;4.87;100.00
8366;BME280;4220;42.502;24.188;2023-03-16T01:16:26;94159.94;;;4.84;100.00
8366;BME280;4220;42.502;24.188;2023-03-16T01:18:54;94163.97;;;4.80;100.00
8366;BME280;4220;42.502;24.188;2023-03-16T01:21:22;94180.97;;;4.77;100.00
8366;BME280;4220;42.502;24.188;2023-03-16T01:23:49;94170.44;;;4.77;100.00
8366;BME280;4220;42.502;24.188;2023-03-16T01:26:18;94162.56;;;4.77;100.00
8366;BME280;4220;42.502;24.188;2023-03-16T01:28:45;94189.47;;;4.73;100.00
8366;BME280;4220;42.502;24.188;2023-03-16T01:31:13;94168.66;;;4.71;100.00
8366;BME280;4220;42.502;24.188;2023-03-16T01:33:40;94178.16;;;4.72;100.00
8366;BME280;4220;42.502;24.188;2023-03-16T01:36:11;94187.47;;;4.68;100.00
8366;BME280;4220;42.502;24.188;2023-03-16T01:38:38;94185.06;;;4.67;100.00
8366;BME280;4220;42.502;24.188;2023-03-16T01:41:06;94182.44;;;4.60;100.00
8366;BME280;4220;42.502;24.188;2023-03-16T01:43:34;94176.22;;;4.54;100.00
8366;BME280;4220;42.502;24.188;2023-03-16T01:46:20;94183.44;;;4.66;100.00
8366;BME280;4220;42.502;24.188;2023-03-16T01:49:06;94189.09;;;4.62;100.00
8366;BME280;4220;42.502;24.188;2023-03-16T01:51:38;94207.91;;;4.53;100.00
8366;BME280;4220;42.502;24.188;2023-03-16T01:54:12;94200.84;;;4.40;100.00
8366;BME280;4220;42.502;24.188;2023-03-16T01:56:44;94190.59;;;4.32;100.00
8366;BME280;4220;42.502;24.188;2023-03-16T01:59:15;94197.63;;;4.38;100.00
8366;BME280;4220;42.502;24.188;2023-03-16T02:01:45;94199.47;;;4.31;100.00
8366;BME280;4220;42.502;24.188;2023-03-16T02:04:44;94196.25;;;4.29;100.00
8366;BME280;4220;42.502;24.188;2023-03-16T02:07:17;94218.66;;;4.25;100.00
8366;BME280;4220;42.502;24.188;2023-03-16T02:09:47;94202.50;;;4.28;100.00
8366;BME280;4220;42.502;24.188;2023-03-16T02:12:16;94206.56;;;4.24;100.00
8366;BME280;4220;42.502;24.188;2023-03-16T02:14:44;94210.78;;;4.25;100.00
8366;BME280;4220;42.502;24.188;2023-03-16T02:17:12;94203.28;;;4.35;100.00
8366;BME280;4220;42.502;24.188;2023-03-16T02:19:45;94210.78;;;4.25;100.00
8366;BME280;4220;42.502;24.188;2023-03-16T02:22:19;94223.31;;;4.17;100.00
8366;BME280;4220;42.502;24.188;2023-03-16T02:24:49;94226.75;;;4.17;100.00
8366;BME280;4220;42.502;24.188;2023-03-16T02:27:22;94216.44;;;4.22;100.00
8366;BME280;4220;42.502;24.188;2023-03-16T02:29:57;94215.25;;;4.25;100.00
8366;BME280;4220;42.502;24.188;2023-03-16T02:32:28;94230.78;;;4.13;100.00
8366;BME280;4220;42.502;24.188;2023-03-16T02:34:58;94215.66;;;4.15;100.00
8366;BME280;4220;42.502;24.188;2023-03-16T02:37:26;94211.41;;;4.08;100.00
8366;BME280;4220;42.502;24.188;2023-03-16T02:39:53;94223.53;;;4.02;100.00
8366;BME280;4220;42.502;24.188;2023-03-16T02:42:22;94205.38;;;3.87;100.00
8366;BME280;4220;42.502;24.188;2023-03-16T02:44:53;94229.56;;;4.09;100.00
8366;BME280;4220;42.502;24.188;2023-03-16T02:47:27;94242.69;;;4.09;100.00
8366;BME280;4220;42.502;24.188;2023-03-16T02:49:56;94265.91;;;4.12;100.00
8366;BME280;4220;42.502;24.188;2023-03-16T02:52:23;94256.19;;;4.06;100.00
8366;BME280;4220;42.502;24.188;2023-03-16T02:54:49;94254.19;;;4.08;100.00
8366;BME280;4220;42.502;24.188;2023-03-16T02:57:16;94246.09;;;4.03;100.00
8366;BME280;4220;42.502;24.188;2023-03-16T02:59:43;94254.59;;;3.98;100.00
8366;BME280;4220;42.502;24.188;2023-03-16T03:02:10;94251.16;;;3.98;100.00
8366;BME280;4220;42.502;24.188;2023-03-16T03:04:38;94248.53;;;3.91;100.00
8366;BME280;4220;42.502;24.188;2023-03-16T03:07:06;94246.72;;;3.92;100.00
8366;BME280;4220;42.502;24.188;2023-03-16T03:09:33;94259.44;;;3.95;100.00
8366;BME280;4220;42.502;24.188;2023-03-16T03:12:00;94274.16;;;3.89;100.00
8366;BME280;4220;42.502;24.188;2023-03-16T03:14:26;94259.03;;;3.85;100.00
8366;BME280;4220;42.502;24.188;2023-03-16T03:16:54;94276.78;;;3.83;100.00
8366;BME280;4220;42.502;24.188;2023-03-16T03:19:21;94238.00;;;3.52;100.00
8366;BME280;4220;42.502;24.188;2023-03-16T03:21:50;94240.84;;;3.51;100.00
8366;BME280;4220;42.502;24.188;2023-03-16T03:24:21;94282.00;;;3.76;100.00
8366;BME280;4220;42.502;24.188;2023-03-16T03:26:48;94289.09;;;3.76;100.00
8366;BME280;4220;42.502;24.188;2023-03-16T03:29:16;94284.22;;;3.73;100.00
8366;BME280;4220;42.502;24.188;2023-03-16T03:31:43;94281.22;;;3.76;100.00
8366;BME280;4220;42.502;24.188;2023-03-16T03:34:10;94289.25;;;3.74;100.00
8366;BME280;4220;42.502;24.188;2023-03-16T03:36:36;94325.75;;;3.63;100.00
8366;BME280;4220;42.502;24.188;2023-03-16T03:39:05;94295.66;;;3.52;100.00
8366;BME280;4220;42.502;24.188;2023-03-16T03:41:32;94306.16;;;3.59;100.00
8366;BME280;4220;42.502;24.188;2023-03-16T03:43:59;94328.75;;;3.60;100.00
8366;BME280;4220;42.502;24.188;2023-03-16T03:46:26;94310.41;;;3.53;100.00
8366;BME280;4220;42.502;24.188;2023-03-16T03:48:53;94305.72;;;3.42;100.00
8366;BME280;4220;42.502;24.188;2023-03-16T03:51:19;94311.00;;;3.49;100.00
8366;BME280;4220;42.502;24.188;2023-03-16T03:53:47;94332.53;;;3.44;100.00
8366;BME280;4220;42.502;24.188;2023-03-16T03:56:15;94322.84;;;3.45;100.00
8366;BME280;4220;42.502;24.188;2023-03-16T03:58:42;94339.19;;;3.40;100.00
8366;BME280;4220;42.502;24.188;2023-03-16T04:01:08;94293.50;;;3.08;100.00
8366;BME280;4220;42.502;24.188;2023-03-16T04:03:35;94335.72;;;3.33;100.00
8366;BME280;4220;42.502;24.188;2023-03-16T04:06:02;94349.41;;;3.28;100.00
8366;BME280;4220;42.502;24.188;2023-03-16T04:08:31;94332.66;;;3.23;100.00
8366;BME280;4220;42.502;24.188;2023-03-16T04:10:58;94349.41;;;3.28;100.00
8366;BME280;4220;42.502;24.188;2023-03-16T04:13:26;94345.97;;;3.21;100.00
8366;BME280;4220;42.502;24.188;2023-03-16T04:15:55;94360.84;;;3.14;100.00
8366;BME280;4220;42.502;24.188;2023-03-16T04:18:22;94354.34;;;3.10;100.00
8366;BME280;4220;42.502;24.188;2023-03-16T04:20:49;94351.72;;;3.10;100.00
8366;BME280;4220;42.502;24.188;2023-03-16T04:23:17;94365.19;;;3.01;100.00
8366;BME280;4220;42.502;24.188;2023-03-16T04:25:44;94355.66;;;2.93;100.00
8366;BME280;4220;42.502;24.188;2023-03-16T04:28:11;94357.06;;;2.89;100.00
8366;BME280;4220;42.502;24.188;2023-03-16T04:30:43;94352.66;;;2.90;100.00
8366;BME280;4220;42.502;24.188;2023-03-16T04:33:10;94381.38;;;2.83;100.00
8366;BME280;4220;42.502;24.188;2023-03-16T04:35:37;94365.06;;;2.81;100.00
8366;BME280;4220;42.502;24.188;2023-03-16T04:38:03;94367.88;;;2.80;100.00
8366;BME280;4220;42.502;24.188;2023-03-16T04:40:30;94345.06;;;2.46;100.00
8366;BME280;4220;42.502;24.188;2023-03-16T04:42:57;94369.41;;;2.68;100.00
8366;BME280;4220;42.502;24.188;2023-03-16T04:45:24;94372.56;;;2.63;100.00
8366;BME280;4220;42.502;24.188;2023-03-16T04:47:52;94371.09;;;2.54;100.00
8366;BME280;4220;42.502;24.188;2023-03-16T04:50:19;94395.84;;;2.51;100.00
8366;BME280;4220;42.502;24.188;2023-03-16T04:52:47;94379.72;;;2.48;100.00
8366;BME280;4220;42.502;24.188;2023-03-16T04:55:13;94388.13;;;2.43;100.00
8366;BME280;4220;42.502;24.188;2023-03-16T04:57:40;94378.09;;;2.47;100.00
8366;BME280;4220;42.502;24.188;2023-03-16T05:00:08;94394.19;;;2.44;100.00
8366;BME280;4220;42.502;24.188;2023-03-16T05:02:40;94407.88;;;2.46;100.00
8366;BME280;4220;42.502;24.188;2023-03-16T05:05:09;94382.47;;;2.40;100.00
8366;BME280;4220;42.502;24.188;2023-03-16T05:07:35;94374.44;;;2.41;100.00
8366;BME280;4220;42.502;24.188;2023-03-16T05:10:02;94386.53;;;2.42;100.00
8366;BME280;4220;42.502;24.188;2023-03-16T05:12:29;94424.59;;;2.45;100.00
8366;BME280;4220;42.502;24.188;2023-03-16T05:14:56;94400.41;;;2.43;100.00
8366;BME280;4220;42.502;24.188;2023-03-16T05:17:23;94393.59;;;2.48;100.00
8366;BME280;4220;42.502;24.188;2023-03-16T05:19:50;94413.19;;;2.52;100.00
8366;BME280;4220;42.502;24.188;2023-03-16T05:22:18;94436.16;;;2.57;100.00
8366;BME280;4220;42.502;24.188;2023-03-16T05:24:45;94402.50;;;2.54;100.00
8366;BME280;4220;42.502;24.188;2023-03-16T05:27:11;94397.09;;;2.55;100.00
8366;BME280;4220;42.502;24.188;2023-03-16T05:29:38;94399.19;;;2.67;100.00
8366;BME280;4220;42.502;24.188;2023-03-16T05:32:10;94429.41;;;2.69;100.00
8366;BME280;4220;42.502;24.188;2023-03-16T05:34:37;94412.97;;;2.75;100.00
8366;BME280;4220;42.502;24.188;2023-03-16T05:37:04;94419.19;;;2.74;100.00
8366;BME280;4220;42.502;24.188;2023-03-16T05:39:32;94342.69;;;2.23;100.00
8366;BME280;4220;42.502;24.188;2023-03-16T05:41:59;94422.19;;;2.71;100.00
8366;BME280;4220;42.502;24.188;2023-03-16T05:44:26;94424.06;;;2.77;100.00
8366;BME280;4220;42.502;24.188;2023-03-16T05:46:53;94435.75;;;2.81;100.00
8366;BME280;4220;42.502;24.188;2023-03-16T05:49:20;94423.63;;;2.74;100.00
8366;BME280;4220;42.502;24.188;2023-03-16T05:51:46;94442.41;;;2.84;100.00
8366;BME280;4220;42.502;24.188;2023-03-16T05:54:14;94425.28;;;2.81;100.00
8366;BME280;4220;42.502;24.188;2023-03-16T05:56:42;94485.38;;;2.89;100.00
8366;BME280;4220;42.502;24.188;2023-03-16T05:59:09;94440.50;;;2.92;100.00
8366;BME280;4220;42.502;24.188;2023-03-16T06:01:36;94462.28;;;2.99;100.00
8366;BME280;4220;42.502;24.188;2023-03-16T06:04:04;94467.38;;;3.07;100.00
8366;BME280;4220;42.502;24.188;2023-03-16T06:06:31;94453.66;;;3.05;100.00
8366;BME280;4220;42.502;24.188;2023-03-16T06:08:58;94478.50;;;3.09;100.00
8366;BME280;4220;42.502;24.188;2023-03-16T06:11:25;94482.94;;;3.15;100.00
8366;BME280;4220;42.502;24.188;2023-03-16T06:13:53;94456.38;;;3.18;100.00
8366;BME280;4220;42.502;24.188;2023-03-16T06:16:22;94455.94;;;3.15;100.00
8366;BME280;4220;42.502;24.188;2023-03-16T06:18:49;94512.00;;;3.20;100.00
8366;BME280;4220;42.502;24.188;2023-03-16T06:21:15;94503.34;;;3.20;100.00
8366;BME280;4220;42.502;24.188;2023-03-16T06:23:43;94481.38;;;3.21;100.00
8366;BME280;4220;42.502;24.188;2023-03-16T06:26:10;94484.09;;;3.06;100.00
8366;BME280;4220;42.502;24.188;2023-03-16T06:28:37;94475.63;;;3.04;100.00
8366;BME280;4220;42.502;24.188;2023-03-16T06:31:05;94485.72;;;3.07;100.00
8366;BME280;4220;42.502;24.188;2023-03-16T06:33:32;94523.25;;;3.14;100.00
8366;BME280;4220;42.502;24.188;2023-03-16T06:35:59;94496.28;;;3.20;100.00
8366;BME280;4220;42.502;24.188;2023-03-16T06:38:26;94494.50;;;3.21;100.00
8366;BME280;4220;42.502;24.188;2023-03-16T06:40:53;94499.16;;;3.25;100.00
8366;BME280;4220;42.502;24.188;2023-03-16T06:43:20;94514.50;;;3.28;100.00
8366;BME280;4220;42.502;24.188;2023-03-16T06:45:47;94530.72;;;3.45;100.00
8366;BME280;4220;42.502;24.188;2023-03-16T06:48:15;94512.66;;;3.57;100.00
8366;BME280;4220;42.502;24.188;2023-03-16T06:50:43;94499.03;;;3.40;100.00
8366;BME280;4220;42.502;24.188;2023-03-16T06:53:10;94519.66;;;3.50;100.00
8366;BME280;4220;42.502;24.188;2023-03-16T06:55:37;94526.31;;;3.46;100.00
8366;BME280;4220;42.502;24.188;2023-03-16T06:58:03;94519.53;;;3.58;100.00
8366;BME280;4220;42.502;24.188;2023-03-16T07:00:30;94526.59;;;3.64;100.00
8366;BME280;4220;42.502;24.188;2023-03-16T07:02:59;94555.00;;;3.54;100.00
8366;BME280;4220;42.502;24.188;2023-03-16T07:05:28;94570.28;;;3.50;100.00
8366;BME280;4220;42.502;24.188;2023-03-16T07:07:55;94521.88;;;3.46;100.00
8366;BME280;4220;42.502;24.188;2023-03-16T07:10:22;94575.56;;;3.57;100.00
8366;BME280;4220;42.502;24.188;2023-03-16T07:12:50;94550.13;;;3.51;100.00
8366;BME280;4220;42.502;24.188;2023-03-16T07:15:17;94578.41;;;3.55;100.00
8366;BME280;4220;42.502;24.188;2023-03-16T07:17:43;94565.28;;;3.55;100.00
8366;BME280;4220;42.502;24.188;2023-03-16T07:20:11;94555.13;;;3.46;100.00
8366;BME280;4220;42.502;24.188;2023-03-16T07:22:39;94568.84;;;3.48;100.00
8366;BME280;4220;42.502;24.188;2023-03-16T07:25:07;94550.16;;;3.57;100.00
8366;BME280;4220;42.502;24.188;2023-03-16T07:27:35;94581.63;;;3.57;100.00
8366;BME280;4220;42.502;24.188;2023-03-16T07:30:04;94565.69;;;3.59;100.00
8366;BME280;4220;42.502;24.188;2023-03-16T07:32:31;94561.47;;;3.58;100.00
8366;BME280;4220;42.502;24.188;2023-03-16T07:34:58;94577.94;;;3.52;100.00
8366;BME280;4220;42.502;24.188;2023-03-16T07:37:25;94565.09;;;3.57;100.00
8366;BME280;4220;42.502;24.188;2023-03-16T07:39:53;94587.81;;;3.50;100.00
8366;BME280;4220;42.502;24.188;2023-03-16T07:42:20;94560.78;;;3.49;100.00
8366;BME280;4220;42.502;24.188;2023-03-16T07:44:47;94569.41;;;3.37;100.00
8366;BME280;4220;42.502;24.188;2023-03-16T07:47:14;94655.31;;;3.41;100.00
8366;BME280;4220;42.502;24.188;2023-03-16T07:49:41;94606.81;;;3.30;100.00
8366;BME280;4220;42.502;24.188;2023-03-16T07:52:09;94574.16;;;3.26;100.00
8366;BME280;4220;42.502;24.188;2023-03-16T07:54:38;94588.81;;;3.21;100.00
8366;BME280;4220;42.502;24.188;2023-03-16T07:57:06;94584.06;;;3.31;100.00
8366;BME280;4220;42.502;24.188;2023-03-16T07:59:33;94626.16;;;3.29;100.00
8366;BME280;4220;42.502;24.188;2023-03-16T08:02:00;94586.47;;;3.33;100.00
8366;BME280;4220;42.502;24.188;2023-03-16T08:04:27;94612.03;;;3.24;100.00
8366;BME280;4220;42.502;24.188;2023-03-16T08:06:54;94601.78;;;3.29;100.00
8366;BME280;4220;42.502;24.188;2023-03-16T08:09:24;94593.19;;;3.42;100.00
8366;BME280;4220;42.502;24.188;2023-03-16T08:11:51;94611.00;;;3.46;100.00
8366;BME280;4220;42.502;24.188;2023-03-16T08:14:19;94590.28;;;3.51;100.00
8366;BME280;4220;42.502;24.188;2023-03-16T08:16:46;94646.56;;;3.55;100.00
8366;BME280;4220;42.502;24.188;2023-03-16T08:19:13;94615.66;;;3.51;100.00
8366;BME280;4220;42.502;24.188;2023-03-16T08:21:41;94630.72;;;3.42;100.00
8366;BME280;4220;42.502;24.188;2023-03-16T08:24:08;94591.16;;;3.37;100.00
8366;BME280;4220;42.502;24.188;2023-03-16T08:26:35;94605.81;;;3.53;100.00
8366;BME280;4220;42.502;24.188;2023-03-16T08:29:02;94597.00;;;3.60;100.00
8366;BME280;4220;42.502;24.188;2023-03-16T08:31:30;94639.34;;;3.64;100.00
8366;BME280;4220;42.502;24.188;2023-03-16T08:33:59;94624.59;;;3.56;100.00
8366;BME280;4220;42.502;24.188;2023-03-16T08:36:27;94622.50;;;3.73;100.00
8366;BME280;4220;42.502;24.188;2023-03-16T08:38:54;94630.59;;;3.78;100.00
8366;BME280;4220;42.502;24.188;2023-03-16T08:41:21;94634.56;;;3.67;100.00
8366;BME280;4220;42.502;24.188;2023-03-16T08:43:49;94621.72;;;3.79;100.00
8366;BME280;4220;42.502;24.188;2023-03-16T08:46:16;94606.50;;;3.95;100.00
8366;BME280;4220;42.502;24.188;2023-03-16T08:48:44;94613.16;;;3.98;100.00
8366;BME280;4220;42.502;24.188;2023-03-16T08:51:13;94597.84;;;4.02;100.00
8366;BME280;4220;42.502;24.188;2023-03-16T08:53:40;94568.50;;;3.85;100.00
8366;BME280;4220;42.502;24.188;2023-03-16T08:56:08;94607.38;;;4.09;100.00
8366;BME280;4220;42.502;24.188;2023-03-16T08:58:37;94604.47;;;4.32;100.00
8366;BME280;4220;42.502;24.188;2023-03-16T09:01:05;94632.78;;;4.36;100.00
8366;BME280;4220;42.502;24.188;2023-03-16T09:03:34;94625.41;;;4.19;100.00
8366;BME280;4220;42.502;24.188;2023-03-16T09:06:03;94641.03;;;3.99;100.00
8366;BME280;4220;42.502;24.188;2023-03-16T09:08:30;94684.91;;;4.12;100.00
8366;BME280;4220;42.502;24.188;2023-03-16T09:10:58;94640.19;;;4.26;100.00
8366;BME280;4220;42.502;24.188;2023-03-16T09:13:26;94715.00;;;4.43;100.00
8366;BME280;4220;42.502;24.188;2023-03-16T09:15:53;94573.56;;;4.27;100.00
8366;BME280;4220;42.502;24.188;2023-03-16T09:18:21;94647.66;;;4.70;100.00
8366;BME280;4220;42.502;24.188;2023-03-16T09:20:48;94638.50;;;4.59;100.00
8366;BME280;4220;42.502;24.188;2023-03-16T09:23:17;94641.94;;;4.53;100.00
8366;BME280;4220;42.502;24.188;2023-03-16T09:25:45;94653.72;;;4.71;100.00
8366;BME280;4220;42.502;24.188;2023-03-16T09:28:12;94679.03;;;4.85;100.00
8366;BME280;4220;42.502;24.188;2023-03-16T09:30:39;94654.19;;;4.81;100.00
8366;BME280;4220;42.502;24.188;2023-03-16T09:33:06;94660.63;;;4.72;100.00
8366;BME280;4220;42.502;24.188;2023-03-16T09:35:33;94644.94;;;4.91;100.00
8366;BME280;4220;42.502;24.188;2023-03-16T09:38:01;94639.25;;;4.88;100.00
8366;BME280;4220;42.502;24.188;2023-03-16T09:40:30;94645.72;;;4.92;100.00
8366;BME280;4220;42.502;24.188;2023-03-16T09:43:09;94622.50;;;5.02;100.00
8366;BME280;4220;42.502;24.188;2023-03-16T09:45:46;94643.28;;;4.90;100.00
8366;BME280;4220;42.502;24.188;2023-03-16T09:48:14;94669.44;;;5.11;100.00
8366;BME280;4220;42.502;24.188;2023-03-16T09:50:43;94664.75;;;5.07;100.00
8366;BME280;4220;42.502;24.188;2023-03-16T09:53:17;94644.13;;;4.91;100.00
8366;BME280;4220;42.502;24.188;2023-03-16T09:55:52;94680.38;;;5.15;100.00
8366;BME280;4220;42.502;24.188;2023-03-16T09:58:21;94650.84;;;5.19;100.00
8366;BME280;4220;42.502;24.188;2023-03-16T10:00:57;94650.66;;;5.27;100.00
8366;BME280;4220;42.502;24.188;2023-03-16T10:03:45;94676.00;;;5.61;100.00
8366;BME280;4220;42.502;24.188;2023-03-16T10:06:16;94689.53;;;5.45;100.00
8366;BME280;4220;42.502;24.188;2023-03-16T10:08:48;94667.25;;;5.35;100.00
8366;BME280;4220;42.502;24.188;2023-03-16T10:11:27;94637.91;;;5.18;100.00
8366;BME280;4220;42.502;24.188;2023-03-16T10:14:01;94661.78;;;5.36;100.00
8366;BME280;4220;42.502;24.188;2023-03-16T10:16:32;94712.22;;;5.53;100.00
8366;BME280;4220;42.502;24.188;2023-03-16T10:19:08;94657.34;;;5.43;100.00
8366;BME280;4220;42.502;24.188;2023-03-16T10:21:39;94693.81;;;5.59;100.00
8366;BME280;4220;42.502;24.188;2023-03-16T10:24:14;94657.81;;;5.92;100.00
8366;BME280;4220;42.502;24.188;2023-03-16T10:26:49;94663.28;;;5.98;100.00
8366;BME280;4220;42.502;24.188;2023-03-16T10:29:18;94700.28;;;5.83;100.00
8366;BME280;4220;42.502;24.188;2023-03-16T10:31:45;94658.81;;;5.78;100.00
8366;BME280;4220;42.502;24.188;2023-03-16T10:34:13;94666.50;;;6.00;100.00
8366;BME280;4220;42.502;24.188;2023-03-16T10:36:43;94695.88;;;6.03;100.00
8366;BME280;4220;42.502;24.188;2023-03-16T10:39:11;94639.41;;;5.92;100.00
8366;BME280;4220;42.502;24.188;2023-03-16T10:41:43;94666.13;;;6.03;100.00
8366;BME280;4220;42.502;24.188;2023-03-16T10:44:12;94666.13;;;5.96;100.00
8366;BME280;4220;42.502;24.188;2023-03-16T10:46:41;94683.91;;;5.74;100.00
8366;BME280;4220;42.502;24.188;2023-03-16T10:49:21;94670.59;;;6.09;100.00
8366;BME280;4220;42.502;24.188;2023-03-16T10:51:52;94700.56;;;5.95;100.00
8366;BME280;4220;42.502;24.188;2023-03-16T10:54:26;94697.50;;;5.98;100.00
8366;BME280;4220;42.502;24.188;2023-03-16T10:56:56;94681.88;;;5.76;100.00
8366;BME280;4220;42.502;24.188;2023-03-16T10:59:29;94644.44;;;5.61;100.00
8366;BME280;4220;42.502;24.188;2023-03-16T11:01:59;94690.16;;;5.80;100.00
8366;BME280;4220;42.502;24.188;2023-03-16T11:04:30;94660.84;;;5.76;100.00
8366;BME280;4220;42.502;24.188;2023-03-16T11:06:57;94676.84;;;6.01;100.00
8366;BME280;4220;42.502;24.188;2023-03-16T11:09:26;94667.34;;;6.00;100.00
8366;BME280;4220;42.502;24.188;2023-03-16T11:11:59;94655.16;;;5.73;100.00
8366;BME280;4220;42.502;24.188;2023-03-16T11:14:28;94663.88;;;5.73;100.00
8366;BME280;4220;42.502;24.188;2023-03-16T11:17:00;94632.09;;;5.55;100.00
8366;BME280;4220;42.502;24.188;2023-03-16T11:19:30;94685.34;;;5.77;100.00
8366;BME280;4220;42.502;24.188;2023-03-16T11:22:01;94671.97;;;5.78;100.00
8366;BME280;4220;42.502;24.188;2023-03-16T11:24:36;94672.97;;;5.84;100.00
8366;BME280;4220;42.502;24.188;2023-03-16T11:27:12;94710.63;;;5.78;100.00
8366;BME280;4220;42.502;24.188;2023-03-16T11:29:45;94729.63;;;5.73;100.00
8366;BME280;4220;42.502;24.188;2023-03-16T11:32:19;94662.88;;;5.74;100.00
8366;BME280;4220;42.502;24.188;2023-03-16T11:34:48;94669.72;;;5.75;100.00
8366;BME280;4220;42.502;24.188;2023-03-16T11:37:24;94677.41;;;5.70;100.00
8366;BME280;4220;42.502;24.188;2023-03-16T11:40:02;94670.78;;;5.87;100.00
8366;BME280;4220;42.502;24.188;2023-03-16T11:42:47;94679.91;;;5.91;100.00
8366;BME280;4220;42.502;24.188;2023-03-16T11:45:24;94677.03;;;6.00;100.00
8366;BME280;4220;42.502;24.188;2023-03-16T11:48:04;94664.50;;;5.88;100.00
8366;BME280;4220;42.502;24.188;2023-03-16T11:50:44;94672.78;;;5.79;100.00
8366;BME280;4220;42.502;24.188;2023-03-16T11:53:25;94650.31;;;5.57;100.00
8366;BME280;4220;42.502;24.188;2023-03-16T11:56:03;94674.19;;;5.62;100.00
8366;BME280;4220;42.502;24.188;2023-03-16T11:58:52;94661.66;;;5.57;100.00
8366;BME280;4220;42.502;24.188;2023-03-16T12:01:23;94668.91;;;5.68;100.00
8366;BME280;4220;42.502;24.188;2023-03-16T12:04:03;94671.75;;;5.47;100.00
8366;BME280;4220;42.502;24.188;2023-03-16T12:06:52;94673.97;;;5.57;100.00
8366;BME280;4220;42.502;24.188;2023-03-16T12:09:44;94738.66;;;5.38;100.00
8366;BME280;4220;42.502;24.188;2023-03-16T12:12:24;94672.13;;;5.44;100.00
8366;BME280;4220;42.502;24.188;2023-03-16T12:15:11;94673.72;;;5.32;100.00
8366;BME280;4220;42.502;24.188;2023-03-16T12:17:43;94717.00;;;5.36;100.00
8366;BME280;4220;42.502;24.188;2023-03-16T12:20:16;94669.69;;;5.36;100.00
8366;BME280;4220;42.502;24.188;2023-03-16T12:22:46;94657.53;;;5.28;100.00
8366;BME280;4220;42.502;24.188;2023-03-16T12:25:17;94705.72;;;5.49;100.00
8366;BME280;4220;42.502;24.188;2023-03-16T12:27:48;94686.28;;;5.30;100.00
8366;BME280;4220;42.502;24.188;2023-03-16T12:30:26;94693.34;;;5.36;100.00
8366;BME280;4220;42.502;24.188;2023-03-16T12:33:02;94708.94;;;5.38;100.00
8366;BME280;4220;42.502;24.188;2023-03-16T12:35:38;94696.63;;;5.51;100.00
8366;BME280;4220;42.502;24.188;2023-03-16T12:38:30;94696.78;;;5.37;100.00
8366;BME280;4220;42.502;24.188;2023-03-16T12:41:13;94686.66;;;5.34;100.00
8366;BME280;4220;42.502;24.188;2023-03-16T12:43:51;94739.91;;;5.49;100.00
8366;BME280;4220;42.502;24.188;2023-03-16T12:46:30;94708.13;;;5.44;100.00
8366;BME280;4220;42.502;24.188;2023-03-16T12:49:01;94721.88;;;5.46;100.00
8366;BME280;4220;42.502;24.188;2023-03-16T12:51:34;94712.59;;;5.50;100.00
8366;BME280;4220;42.502;24.188;2023-03-16T12:54:01;94728.34;;;5.43;100.00
8366;BME280;4220;42.502;24.188;2023-03-16T12:56:30;94720.25;;;5.38;100.00
8366;BME280;4220;42.502;24.188;2023-03-16T12:58:59;94710.50;;;5.19;100.00
8366;BME280;4220;42.502;24.188;2023-03-16T13:01:30;94731.94;;;5.16;100.00
8366;BME280;4220;42.502;24.188;2023-03-16T13:04:08;94726.47;;;5.11;100.00
8366;BME280;4220;42.502;24.188;2023-03-16T13:06:40;94720.00;;;5.20;100.00
8366;BME280;4220;42.502;24.188;2023-03-16T13:09:10;94740.97;;;5.07;100.00
8366;BME280;4220;42.502;24.188;2023-03-16T13:11:43;94725.81;;;5.09;100.00
8366;BME280;4220;42.502;24.188;2023-03-16T13:14:16;94740.16;;;5.00;100.00
8366;BME280;4220;42.502;24.188;2023-03-16T13:17:04;94724.41;;;4.66;100.00
8366;BME280;4220;42.502;24.188;2023-03-16T13:19:31;94729.84;;;5.05;100.00
8366;BME280;4220;42.502;24.188;2023-03-16T13:22:16;94742.19;;;5.04;100.00
8366;BME280;4220;42.502;24.188;2023-03-16T13:24:50;94741.59;;;5.09;100.00